sensor_id;sensor_type;location;lat;lon;timestamp;P1;durP1;ratioP1;P2;durP2;ratioP2
64915;SDS011;51427;-27.442;153.014;2024-02-15T00:01:06;4.28;;;1.42;;
64915;SDS011;51427;-27.442;153.014;2024-02-15T00:03:33;7.10;;;1.55;;
64915;SDS011;51427;-27.442;153.014;2024-02-15T00:06:02;7.47;;;1.65;;
64915;SDS011;51427;-27.442;153.014;2024-02-15T00:08:29;8.77;;;1.52;;
64915;SDS011;51427;-27.442;153.014;2024-02-15T00:10:58;9.93;;;1.80;;
64915;SDS011;51427;-27.442;153.014;2024-02-15T00:13:26;8.27;;;1.50;;
64915;SDS011;51427;-27.442;153.014;2024-02-15T00:15:53;8.27;;;1.85;;
64915;SDS011;51427;-27.442;153.014;2024-02-15T00:18:21;5.78;;;1.30;;
64915;SDS011;51427;-27.442;153.014;2024-02-15T00:20:49;7.03;;;1.38;;
64915;SDS011;51427;-27.442;153.014;2024-02-15T00:23:17;5.55;;;1.60;;
64915;SDS011;51427;-27.442;153.014;2024-02-15T00:25:44;6.25;;;1.60;;
64915;SDS011;51427;-27.442;153.014;2024-02-15T00:28:12;7.15;;;1.75;;
64915;SDS011;51427;-27.442;153.014;2024-02-15T00:30:40;7.93;;;1.67;;
64915;SDS011;51427;-27.442;153.014;2024-02-15T00:33:08;8.70;;;2.28;;
64915;SDS011;51427;-27.442;153.014;2024-02-15T00:35:36;7.65;;;1.85;;
64915;SDS011;51427;-27.442;153.014;2024-02-15T00:38:03;7.82;;;1.67;;
64915;SDS011;51427;-27.442;153.014;2024-02-15T00:40:32;6.63;;;1.83;;
64915;SDS011;51427;-27.442;153.014;2024-02-15T00:43:00;9.40;;;2.00;;
64915;SDS011;51427;-27.442;153.014;2024-02-15T00:45:28;6.53;;;1.90;;
64915;SDS011;51427;-27.442;153.014;2024-02-15T00:47:56;5.95;;;1.60;;
64915;SDS011;51427;-27.442;153.014;2024-02-15T00:50:23;5.88;;;1.42;;
64915;SDS011;51427;-27.442;153.014;2024-02-15T00:52:51;5.85;;;1.67;;
64915;SDS011;51427;-27.442;153.014;2024-02-15T00:55:18;5.72;;;1.60;;
64915;SDS011;51427;-27.442;153.014;2024-02-15T00:57:47;7.45;;;1.45;;
64915;SDS011;51427;-27.442;153.014;2024-02-15T01:00:14;11.00;;;1.80;;
64915;SDS011;51427;-27.442;153.014;2024-02-15T01:02:42;7.15;;;1.80;;
64915;SDS011;51427;-27.442;153.014;2024-02-15T01:05:11;10.10;;;2.15;;
64915;SDS011;51427;-27.442;153.014;2024-02-15T01:07:41;6.90;;;1.52;;
64915;SDS011;51427;-27.442;153.014;2024-02-15T01:10:09;6.25;;;1.67;;
64915;SDS011;51427;-27.442;153.014;2024-02-15T01:12:36;8.80;;;1.80;;
64915;SDS011;51427;-27.442;153.014;2024-02-15T01:15:05;10.18;;;2.33;;
64915;SDS011;51427;-27.442;153.014;2024-02-15T01:17:33;6.15;;;1.88;;
64915;SDS011;51427;-27.442;153.014;2024-02-15T01:20:01;7.18;;;1.40;;
64915;SDS011;51427;-27.442;153.014;2024-02-15T01:22:29;7.95;;;1.70;;
64915;SDS011;51427;-27.442;153.014;2024-02-15T01:24:57;7.53;;;1.52;;
64915;SDS011;51427;-27.442;153.014;2024-02-15T01:27:24;8.95;;;1.83;;
64915;SDS011;51427;-27.442;153.014;2024-02-15T01:29:56;5.55;;;1.38;;
64915;SDS011;51427;-27.442;153.014;2024-02-15T01:32:23;7.18;;;1.63;;
64915;SDS011;51427;-27.442;153.014;2024-02-15T01:34:54;5.45;;;1.40;;
64915;SDS011;51427;-27.442;153.014;2024-02-15T01:37:21;4.18;;;1.20;;
64915;SDS011;51427;-27.442;153.014;2024-02-15T01:39:49;3.97;;;1.10;;
64915;SDS011;51427;-27.442;153.014;2024-02-15T01:42:18;4.45;;;1.20;;
64915;SDS011;51427;-27.442;153.014;2024-02-15T01:44:45;5.40;;;1.40;;
64915;SDS011;51427;-27.442;153.014;2024-02-15T01:47:16;6.68;;;1.60;;
64915;SDS011;51427;-27.442;153.014;2024-02-15T01:49:48;6.45;;;1.40;;
64915;SDS011;51427;-27.442;153.014;2024-02-15T01:52:16;8.65;;;1.30;;
64915;SDS011;51427;-27.442;153.014;2024-02-15T01:54:44;3.92;;;1.08;;
64915;SDS011;51427;-27.442;153.014;2024-02-15T01:57:12;3.85;;;1.25;;
64915;SDS011;51427;-27.442;153.014;2024-02-15T01:59:40;6.40;;;1.48;;
64915;SDS011;51427;-27.442;153.014;2024-02-15T02:02:08;6.50;;;1.63;;
64915;SDS011;51427;-27.442;153.014;2024-02-15T02:04:38;7.15;;;1.70;;
64915;SDS011;51427;-27.442;153.014;2024-02-15T02:07:05;3.83;;;1.35;;
64915;SDS011;51427;-27.442;153.014;2024-02-15T02:09:33;5.70;;;1.35;;
64915;SDS011;51427;-27.442;153.014;2024-02-15T02:12:01;4.85;;;1.13;;
64915;SDS011;51427;-27.442;153.014;2024-02-15T02:14:30;6.50;;;1.60;;
64915;SDS011;51427;-27.442;153.014;2024-02-15T02:17:10;8.32;;;1.80;;
64915;SDS011;51427;-27.442;153.014;2024-02-15T02:19:39;7.88;;;1.52;;
64915;SDS011;51427;-27.442;153.014;2024-02-15T02:22:08;6.10;;;1.30;;
64915;SDS011;51427;-27.442;153.014;2024-02-15T02:27:29;7.13;;;1.50;;
64915;SDS011;51427;-27.442;153.014;2024-02-15T02:30:05;7.23;;;2.10;;
64915;SDS011;51427;-27.442;153.014;2024-02-15T02:32:41;10.05;;;2.20;;
64915;SDS011;51427;-27.442;153.014;2024-02-15T02:35:08;5.35;;;1.58;;
64915;SDS011;51427;-27.442;153.014;2024-02-15T02:37:39;8.20;;;1.50;;
64915;SDS011;51427;-27.442;153.014;2024-02-15T02:40:07;7.00;;;1.90;;
64915;SDS011;51427;-27.442;153.014;2024-02-15T02:42:36;7.80;;;1.92;;
64915;SDS011;51427;-27.442;153.014;2024-02-15T02:45:17;7.20;;;1.77;;
64915;SDS011;51427;-27.442;153.014;2024-02-15T02:47:46;5.78;;;1.50;;
64915;SDS011;51427;-27.442;153.014;2024-02-15T02:50:13;9.63;;;1.83;;
64915;SDS011;51427;-27.442;153.014;2024-02-15T02:52:41;8.40;;;1.77;;
64915;SDS011;51427;-27.442;153.014;2024-02-15T02:55:10;7.85;;;1.60;;
64915;SDS011;51427;-27.442;153.014;2024-02-15T02:57:38;4.97;;;1.40;;
64915;SDS011;51427;-27.442;153.014;2024-02-15T03:00:06;8.05;;;1.80;;
64915;SDS011;51427;-27.442;153.014;2024-02-15T03:02:45;6.68;;;1.67;;
64915;SDS011;51427;-27.442;153.014;2024-02-15T03:05:13;3.70;;;1.20;;
64915;SDS011;51427;-27.442;153.014;2024-02-15T03:07:40;5.93;;;1.60;;
64915;SDS011;51427;-27.442;153.014;2024-02-15T03:10:08;4.53;;;1.10;;
64915;SDS011;51427;-27.442;153.014;2024-02-15T03:12:39;3.17;;;1.23;;
64915;SDS011;51427;-27.442;153.014;2024-02-15T03:15:12;5.30;;;1.40;;
64915;SDS011;51427;-27.442;153.014;2024-02-15T03:17:40;4.72;;;1.42;;
64915;SDS011;51427;-27.442;153.014;2024-02-15T03:20:10;3.30;;;1.48;;
64915;SDS011;51427;-27.442;153.014;2024-02-15T03:22:56;6.28;;;1.52;;
64915;SDS011;51427;-27.442;153.014;2024-02-15T03:25:24;6.32;;;1.38;;
64915;SDS011;51427;-27.442;153.014;2024-02-15T03:27:55;4.93;;;1.83;;
64915;SDS011;51427;-27.442;153.014;2024-02-15T03:30:24;5.00;;;1.77;;
64915;SDS011;51427;-27.442;153.014;2024-02-15T03:32:55;5.63;;;1.58;;
64915;SDS011;51427;-27.442;153.014;2024-02-15T03:35:26;7.15;;;1.80;;
64915;SDS011;51427;-27.442;153.014;2024-02-15T03:37:57;5.88;;;1.40;;
64915;SDS011;51427;-27.442;153.014;2024-02-15T03:40:25;6.82;;;1.50;;
64915;SDS011;51427;-27.442;153.014;2024-02-15T03:42:53;8.77;;;1.58;;
64915;SDS011;51427;-27.442;153.014;2024-02-15T03:45:21;4.85;;;1.20;;
64915;SDS011;51427;-27.442;153.014;2024-02-15T03:47:54;7.38;;;1.45;;
64915;SDS011;51427;-27.442;153.014;2024-02-15T03:50:22;6.50;;;1.55;;
64915;SDS011;51427;-27.442;153.014;2024-02-15T03:52:49;7.03;;;1.40;;
64915;SDS011;51427;-27.442;153.014;2024-02-15T03:55:17;3.00;;;1.13;;
64915;SDS011;51427;-27.442;153.014;2024-02-15T03:57:48;5.35;;;1.25;;
64915;SDS011;51427;-27.442;153.014;2024-02-15T04:00:15;4.07;;;1.40;;
64915;SDS011;51427;-27.442;153.014;2024-02-15T04:02:46;4.97;;;1.42;;
64915;SDS011;51427;-27.442;153.014;2024-02-15T04:05:14;7.20;;;1.30;;
64915;SDS011;51427;-27.442;153.014;2024-02-15T04:07:44;5.38;;;1.13;;
64915;SDS011;51427;-27.442;153.014;2024-02-15T04:10:12;6.55;;;1.42;;
64915;SDS011;51427;-27.442;153.014;2024-02-15T04:12:40;6.60;;;1.80;;
64915;SDS011;51427;-27.442;153.014;2024-02-15T04:15:10;4.60;;;1.17;;
64915;SDS011;51427;-27.442;153.014;2024-02-15T04:17:38;6.90;;;1.98;;
64915;SDS011;51427;-27.442;153.014;2024-02-15T04:20:06;6.10;;;1.67;;
64915;SDS011;51427;-27.442;153.014;2024-02-15T04:22:35;8.65;;;2.15;;
64915;SDS011;51427;-27.442;153.014;2024-02-15T04:25:06;7.65;;;1.83;;
64915;SDS011;51427;-27.442;153.014;2024-02-15T04:27:42;6.40;;;1.75;;
64915;SDS011;51427;-27.442;153.014;2024-02-15T04:30:13;9.52;;;1.98;;
64915;SDS011;51427;-27.442;153.014;2024-02-15T04:32:41;8.60;;;1.88;;
64915;SDS011;51427;-27.442;153.014;2024-02-15T04:35:09;6.43;;;1.75;;
64915;SDS011;51427;-27.442;153.014;2024-02-15T04:37:37;5.75;;;1.67;;
64915;SDS011;51427;-27.442;153.014;2024-02-15T04:40:06;6.40;;;1.75;;
64915;SDS011;51427;-27.442;153.014;2024-02-15T04:42:36;6.85;;;1.80;;
64915;SDS011;51427;-27.442;153.014;2024-02-15T04:45:09;10.32;;;2.22;;
64915;SDS011;51427;-27.442;153.014;2024-02-15T04:47:39;6.80;;;1.83;;
64915;SDS011;51427;-27.442;153.014;2024-02-15T04:50:07;9.00;;;2.03;;
64915;SDS011;51427;-27.442;153.014;2024-02-15T04:52:35;4.57;;;1.45;;
64915;SDS011;51427;-27.442;153.014;2024-02-15T04:55:04;6.80;;;1.75;;
64915;SDS011;51427;-27.442;153.014;2024-02-15T04:57:31;9.18;;;1.90;;
64915;SDS011;51427;-27.442;153.014;2024-02-15T05:00:02;5.65;;;1.63;;
64915;SDS011;51427;-27.442;153.014;2024-02-15T05:02:37;7.32;;;1.38;;
64915;SDS011;51427;-27.442;153.014;2024-02-15T05:05:10;5.38;;;1.50;;
64915;SDS011;51427;-27.442;153.014;2024-02-15T05:07:38;6.00;;;1.45;;
64915;SDS011;51427;-27.442;153.014;2024-02-15T05:10:07;9.50;;;1.70;;
64915;SDS011;51427;-27.442;153.014;2024-02-15T05:12:36;5.60;;;1.63;;
64915;SDS011;51427;-27.442;153.014;2024-02-15T05:15:08;5.03;;;1.33;;
64915;SDS011;51427;-27.442;153.014;2024-02-15T05:17:37;5.53;;;1.40;;
64915;SDS011;51427;-27.442;153.014;2024-02-15T05:20:07;11.75;;;2.10;;
64915;SDS011;51427;-27.442;153.014;2024-02-15T05:22:39;4.75;;;1.33;;
64915;SDS011;51427;-27.442;153.014;2024-02-15T05:25:11;5.93;;;1.80;;
64915;SDS011;51427;-27.442;153.014;2024-02-15T05:27:41;9.27;;;1.83;;
64915;SDS011;51427;-27.442;153.014;2024-02-15T05:30:10;7.82;;;1.95;;
64915;SDS011;51427;-27.442;153.014;2024-02-15T05:32:38;4.70;;;1.40;;
64915;SDS011;51427;-27.442;153.014;2024-02-15T05:35:09;6.35;;;1.60;;
64915;SDS011;51427;-27.442;153.014;2024-02-15T05:37:38;8.45;;;2.20;;
64915;SDS011;51427;-27.442;153.014;2024-02-15T05:40:06;7.82;;;1.75;;
64915;SDS011;51427;-27.442;153.014;2024-02-15T05:42:43;8.25;;;1.60;;
64915;SDS011;51427;-27.442;153.014;2024-02-15T05:45:29;7.95;;;1.40;;
64915;SDS011;51427;-27.442;153.014;2024-02-15T05:48:01;10.38;;;1.73;;
64915;SDS011;51427;-27.442;153.014;2024-02-15T05:50:32;8.65;;;1.85;;
64915;SDS011;51427;-27.442;153.014;2024-02-15T05:53:00;6.97;;;1.65;;
64915;SDS011;51427;-27.442;153.014;2024-02-15T05:55:29;5.80;;;1.17;;
64915;SDS011;51427;-27.442;153.014;2024-02-15T05:57:59;5.53;;;1.48;;
64915;SDS011;51427;-27.442;153.014;2024-02-15T06:00:28;5.75;;;1.65;;
64915;SDS011;51427;-27.442;153.014;2024-02-15T06:02:56;5.70;;;1.50;;
64915;SDS011;51427;-27.442;153.014;2024-02-15T06:05:24;6.43;;;1.25;;
64915;SDS011;51427;-27.442;153.014;2024-02-15T06:07:51;8.38;;;2.00;;
64915;SDS011;51427;-27.442;153.014;2024-02-15T06:10:19;7.13;;;1.42;;
64915;SDS011;51427;-27.442;153.014;2024-02-15T06:12:47;7.00;;;1.90;;
64915;SDS011;51427;-27.442;153.014;2024-02-15T06:15:14;7.70;;;1.55;;
64915;SDS011;51427;-27.442;153.014;2024-02-15T06:17:43;4.45;;;1.25;;
64915;SDS011;51427;-27.442;153.014;2024-02-15T06:20:14;7.50;;;1.65;;
64915;SDS011;51427;-27.442;153.014;2024-02-15T06:22:43;6.38;;;1.73;;
64915;SDS011;51427;-27.442;153.014;2024-02-15T06:25:12;6.90;;;1.35;;
64915;SDS011;51427;-27.442;153.014;2024-02-15T06:27:41;4.78;;;1.35;;
64915;SDS011;51427;-27.442;153.014;2024-02-15T06:30:09;6.45;;;1.33;;
64915;SDS011;51427;-27.442;153.014;2024-02-15T06:32:55;7.38;;;1.77;;
64915;SDS011;51427;-27.442;153.014;2024-02-15T06:38:26;7.95;;;1.63;;
64915;SDS011;51427;-27.442;153.014;2024-02-15T06:41:12;6.90;;;1.35;;
64915;SDS011;51427;-27.442;153.014;2024-02-15T06:43:40;6.45;;;1.88;;
64915;SDS011;51427;-27.442;153.014;2024-02-15T06:46:07;5.93;;;1.50;;
64915;SDS011;51427;-27.442;153.014;2024-02-15T06:48:36;6.85;;;1.65;;
64915;SDS011;51427;-27.442;153.014;2024-02-15T06:51:04;6.18;;;1.40;;
64915;SDS011;51427;-27.442;153.014;2024-02-15T06:53:34;10.43;;;2.28;;
64915;SDS011;51427;-27.442;153.014;2024-02-15T06:56:01;8.65;;;1.83;;
64915;SDS011;51427;-27.442;153.014;2024-02-15T06:58:29;5.25;;;1.33;;
64915;SDS011;51427;-27.442;153.014;2024-02-15T07:00:56;6.97;;;1.65;;
64915;SDS011;51427;-27.442;153.014;2024-02-15T07:03:23;9.50;;;1.80;;
64915;SDS011;51427;-27.442;153.014;2024-02-15T07:05:50;7.88;;;1.40;;
64915;SDS011;51427;-27.442;153.014;2024-02-15T07:08:18;6.63;;;1.95;;
64915;SDS011;51427;-27.442;153.014;2024-02-15T07:10:45;3.83;;;1.30;;
64915;SDS011;51427;-27.442;153.014;2024-02-15T07:13:13;5.63;;;1.65;;
64915;SDS011;51427;-27.442;153.014;2024-02-15T07:15:40;7.93;;;2.20;;
64915;SDS011;51427;-27.442;153.014;2024-02-15T07:18:07;3.78;;;1.30;;
64915;SDS011;51427;-27.442;153.014;2024-02-15T07:20:36;7.57;;;1.60;;
64915;SDS011;51427;-27.442;153.014;2024-02-15T07:23:05;8.63;;;1.73;;
64915;SDS011;51427;-27.442;153.014;2024-02-15T07:25:32;7.95;;;1.40;;
64915;SDS011;51427;-27.442;153.014;2024-02-15T07:27:59;6.05;;;1.40;;
64915;SDS011;51427;-27.442;153.014;2024-02-15T07:30:27;7.13;;;1.73;;
64915;SDS011;51427;-27.442;153.014;2024-02-15T07:32:54;7.18;;;1.67;;
64915;SDS011;51427;-27.442;153.014;2024-02-15T07:35:21;7.32;;;1.70;;
64915;SDS011;51427;-27.442;153.014;2024-02-15T07:37:54;5.53;;;1.50;;
64915;SDS011;51427;-27.442;153.014;2024-02-15T07:40:24;7.70;;;1.55;;
64915;SDS011;51427;-27.442;153.014;2024-02-15T07:42:57;5.85;;;1.23;;
64915;SDS011;51427;-27.442;153.014;2024-02-15T07:45:24;7.68;;;2.05;;
64915;SDS011;51427;-27.442;153.014;2024-02-15T07:47:51;5.40;;;1.40;;
64915;SDS011;51427;-27.442;153.014;2024-02-15T07:50:19;5.22;;;1.65;;
64915;SDS011;51427;-27.442;153.014;2024-02-15T07:52:48;6.15;;;1.50;;
64915;SDS011;51427;-27.442;153.014;2024-02-15T07:55:16;7.25;;;1.65;;
64915;SDS011;51427;-27.442;153.014;2024-02-15T07:57:44;8.27;;;1.65;;
64915;SDS011;51427;-27.442;153.014;2024-02-15T08:00:14;5.20;;;1.58;;
64915;SDS011;51427;-27.442;153.014;2024-02-15T08:02:42;5.55;;;1.80;;
64915;SDS011;51427;-27.442;153.014;2024-02-15T08:05:10;6.55;;;1.35;;
64915;SDS011;51427;-27.442;153.014;2024-02-15T08:07:43;7.00;;;1.30;;
64915;SDS011;51427;-27.442;153.014;2024-02-15T08:10:11;6.68;;;1.60;;
64915;SDS011;51427;-27.442;153.014;2024-02-15T08:12:43;7.00;;;1.70;;
64915;SDS011;51427;-27.442;153.014;2024-02-15T08:15:12;7.82;;;1.88;;
64915;SDS011;51427;-27.442;153.014;2024-02-15T08:17:40;6.60;;;1.52;;
64915;SDS011;51427;-27.442;153.014;2024-02-15T08:20:09;9.00;;;1.98;;
64915;SDS011;51427;-27.442;153.014;2024-02-15T08:22:38;7.00;;;1.52;;
64915;SDS011;51427;-27.442;153.014;2024-02-15T08:25:12;7.40;;;1.90;;
64915;SDS011;51427;-27.442;153.014;2024-02-15T08:27:46;6.93;;;1.50;;
64915;SDS011;51427;-27.442;153.014;2024-02-15T08:30:15;6.55;;;1.67;;
64915;SDS011;51427;-27.442;153.014;2024-02-15T08:32:43;10.90;;;2.30;;
64915;SDS011;51427;-27.442;153.014;2024-02-15T08:35:12;6.30;;;1.73;;
64915;SDS011;51427;-27.442;153.014;2024-02-15T08:37:40;6.60;;;1.88;;
64915;SDS011;51427;-27.442;153.014;2024-02-15T08:40:09;8.20;;;1.70;;
64915;SDS011;51427;-27.442;153.014;2024-02-15T08:42:38;9.05;;;1.77;;
64915;SDS011;51427;-27.442;153.014;2024-02-15T08:45:09;6.22;;;1.40;;
64915;SDS011;51427;-27.442;153.014;2024-02-15T08:47:38;5.53;;;1.60;;
64915;SDS011;51427;-27.442;153.014;2024-02-15T08:50:07;6.03;;;1.65;;
64915;SDS011;51427;-27.442;153.014;2024-02-15T08:52:35;4.28;;;1.55;;
64915;SDS011;51427;-27.442;153.014;2024-02-15T08:55:09;6.47;;;1.70;;
64915;SDS011;51427;-27.442;153.014;2024-02-15T08:57:40;5.63;;;1.70;;
64915;SDS011;51427;-27.442;153.014;2024-02-15T09:00:10;6.53;;;1.55;;
64915;SDS011;51427;-27.442;153.014;2024-02-15T09:02:45;6.10;;;1.45;;
64915;SDS011;51427;-27.442;153.014;2024-02-15T09:05:14;9.60;;;1.70;;
64915;SDS011;51427;-27.442;153.014;2024-02-15T09:07:43;7.22;;;1.70;;
64915;SDS011;51427;-27.442;153.014;2024-02-15T09:10:14;7.88;;;1.73;;
64915;SDS011;51427;-27.442;153.014;2024-02-15T09:12:44;7.47;;;1.70;;
64915;SDS011;51427;-27.442;153.014;2024-02-15T09:15:18;4.88;;;1.65;;
64915;SDS011;51427;-27.442;153.014;2024-02-15T09:17:48;5.85;;;1.63;;
64915;SDS011;51427;-27.442;153.014;2024-02-15T09:20:15;8.38;;;1.70;;
64915;SDS011;51427;-27.442;153.014;2024-02-15T09:22:50;6.30;;;1.63;;
64915;SDS011;51427;-27.442;153.014;2024-02-15T09:25:18;7.85;;;1.70;;
64915;SDS011;51427;-27.442;153.014;2024-02-15T09:27:46;3.97;;;1.60;;
64915;SDS011;51427;-27.442;153.014;2024-02-15T09:30:13;8.25;;;1.67;;
64915;SDS011;51427;-27.442;153.014;2024-02-15T09:32:42;5.45;;;1.58;;
64915;SDS011;51427;-27.442;153.014;2024-02-15T09:35:10;5.72;;;1.70;;
64915;SDS011;51427;-27.442;153.014;2024-02-15T09:37:43;5.50;;;2.00;;
64915;SDS011;51427;-27.442;153.014;2024-02-15T09:40:18;5.78;;;1.67;;
64915;SDS011;51427;-27.442;153.014;2024-02-15T09:42:46;5.50;;;1.67;;
64915;SDS011;51427;-27.442;153.014;2024-02-15T09:45:14;9.10;;;2.00;;
64915;SDS011;51427;-27.442;153.014;2024-02-15T09:47:42;4.45;;;1.40;;
64915;SDS011;51427;-27.442;153.014;2024-02-15T09:50:11;6.70;;;1.92;;
64915;SDS011;51427;-27.442;153.014;2024-02-15T09:52:52;9.98;;;1.42;;
64915;SDS011;51427;-27.442;153.014;2024-02-15T09:55:20;6.88;;;1.42;;
64915;SDS011;51427;-27.442;153.014;2024-02-15T09:57:49;5.15;;;1.35;;
64915;SDS011;51427;-27.442;153.014;2024-02-15T10:00:17;5.88;;;1.95;;
64915;SDS011;51427;-27.442;153.014;2024-02-15T10:02:44;8.48;;;2.58;;
64915;SDS011;51427;-27.442;153.014;2024-02-15T10:05:17;8.07;;;1.58;;
64915;SDS011;51427;-27.442;153.014;2024-02-15T10:07:45;7.25;;;1.65;;
64915;SDS011;51427;-27.442;153.014;2024-02-15T10:12:47;6.68;;;1.85;;
64915;SDS011;51427;-27.442;153.014;2024-02-15T10:15:28;7.00;;;2.08;;
64915;SDS011;51427;-27.442;153.014;2024-02-15T10:17:56;7.78;;;1.85;;
64915;SDS011;51427;-27.442;153.014;2024-02-15T10:20:26;7.00;;;1.50;;
64915;SDS011;51427;-27.442;153.014;2024-02-15T10:25:43;9.02;;;2.25;;
64915;SDS011;51427;-27.442;153.014;2024-02-15T10:28:11;6.57;;;1.80;;
64915;SDS011;51427;-27.442;153.014;2024-02-15T10:30:41;8.02;;;2.17;;
64915;SDS011;51427;-27.442;153.014;2024-02-15T10:33:20;7.47;;;2.47;;
64915;SDS011;51427;-27.442;153.014;2024-02-15T10:36:06;7.57;;;2.30;;
64915;SDS011;51427;-27.442;153.014;2024-02-15T10:38:39;7.68;;;2.55;;
64915;SDS011;51427;-27.442;153.014;2024-02-15T10:41:07;4.95;;;2.20;;
64915;SDS011;51427;-27.442;153.014;2024-02-15T10:43:36;8.25;;;1.90;;
64915;SDS011;51427;-27.442;153.014;2024-02-15T10:46:04;12.02;;;2.10;;
64915;SDS011;51427;-27.442;153.014;2024-02-15T10:48:35;9.65;;;2.00;;
64915;SDS011;51427;-27.442;153.014;2024-02-15T10:51:03;7.18;;;1.48;;
64915;SDS011;51427;-27.442;153.014;2024-02-15T10:53:36;8.43;;;2.05;;
64915;SDS011;51427;-27.442;153.014;2024-02-15T10:58:54;8.18;;;2.60;;
64915;SDS011;51427;-27.442;153.014;2024-02-15T11:01:26;5.88;;;2.05;;
64915;SDS011;51427;-27.442;153.014;2024-02-15T11:03:59;9.93;;;1.98;;
64915;SDS011;51427;-27.442;153.014;2024-02-15T11:06:27;5.38;;;1.95;;
64915;SDS011;51427;-27.442;153.014;2024-02-15T11:08:55;6.93;;;1.70;;
64915;SDS011;51427;-27.442;153.014;2024-02-15T11:11:24;4.65;;;1.63;;
64915;SDS011;51427;-27.442;153.014;2024-02-15T11:16:51;6.93;;;1.70;;
64915;SDS011;51427;-27.442;153.014;2024-02-15T11:22:11;4.63;;;1.40;;
64915;SDS011;51427;-27.442;153.014;2024-02-15T11:24:51;4.25;;;1.13;;
64915;SDS011;51427;-27.442;153.014;2024-02-15T11:27:28;4.75;;;1.20;;
64915;SDS011;51427;-27.442;153.014;2024-02-15T11:30:01;5.68;;;1.50;;
64915;SDS011;51427;-27.442;153.014;2024-02-15T11:32:46;5.00;;;1.45;;
64915;SDS011;51427;-27.442;153.014;2024-02-15T11:35:22;8.00;;;1.77;;
64915;SDS011;51427;-27.442;153.014;2024-02-15T11:40:22;3.53;;;1.30;;
64915;SDS011;51427;-27.442;153.014;2024-02-15T11:42:57;6.88;;;1.40;;
64915;SDS011;51427;-27.442;153.014;2024-02-15T11:45:30;8.52;;;2.03;;
64915;SDS011;51427;-27.442;153.014;2024-02-15T11:48:10;7.70;;;1.80;;
64915;SDS011;51427;-27.442;153.014;2024-02-15T11:50:38;6.93;;;1.70;;
64915;SDS011;51427;-27.442;153.014;2024-02-15T11:53:06;4.47;;;1.45;;
64915;SDS011;51427;-27.442;153.014;2024-02-15T11:55:37;6.03;;;1.55;;
64915;SDS011;51427;-27.442;153.014;2024-02-15T11:58:05;6.30;;;1.80;;
64915;SDS011;51427;-27.442;153.014;2024-02-15T12:00:34;8.55;;;1.45;;
64915;SDS011;51427;-27.442;153.014;2024-02-15T12:03:20;7.40;;;1.70;;
64915;SDS011;51427;-27.442;153.014;2024-02-15T12:08:52;8.02;;;1.95;;
64915;SDS011;51427;-27.442;153.014;2024-02-15T12:11:38;7.63;;;1.40;;
64915;SDS011;51427;-27.442;153.014;2024-02-15T12:17:12;7.07;;;1.60;;
64915;SDS011;51427;-27.442;153.014;2024-02-15T12:20:01;4.35;;;1.50;;
64915;SDS011;51427;-27.442;153.014;2024-02-15T12:22:39;5.80;;;1.23;;
64915;SDS011;51427;-27.442;153.014;2024-02-15T12:25:17;5.88;;;1.63;;
64915;SDS011;51427;-27.442;153.014;2024-02-15T12:27:47;7.82;;;1.15;;
64915;SDS011;51427;-27.442;153.014;2024-02-15T12:30:20;6.63;;;1.52;;
64915;SDS011;51427;-27.442;153.014;2024-02-15T12:32:48;4.70;;;1.52;;
64915;SDS011;51427;-27.442;153.014;2024-02-15T12:35:19;9.65;;;2.80;;
64915;SDS011;51427;-27.442;153.014;2024-02-15T12:38:01;7.95;;;3.65;;
64915;SDS011;51427;-27.442;153.014;2024-02-15T12:40:34;9.63;;;3.33;;
64915;SDS011;51427;-27.442;153.014;2024-02-15T12:43:05;7.35;;;3.17;;
64915;SDS011;51427;-27.442;153.014;2024-02-15T12:45:38;6.15;;;3.25;;
64915;SDS011;51427;-27.442;153.014;2024-02-15T12:48:09;4.72;;;2.80;;
64915;SDS011;51427;-27.442;153.014;2024-02-15T12:50:36;7.85;;;3.20;;
64915;SDS011;51427;-27.442;153.014;2024-02-15T12:53:04;4.32;;;2.97;;
64915;SDS011;51427;-27.442;153.014;2024-02-15T12:55:35;4.15;;;2.50;;
64915;SDS011;51427;-27.442;153.014;2024-02-15T12:58:03;7.18;;;2.92;;
64915;SDS011;51427;-27.442;153.014;2024-02-15T13:00:35;3.25;;;2.38;;
64915;SDS011;51427;-27.442;153.014;2024-02-15T13:03:05;4.57;;;2.42;;
64915;SDS011;51427;-27.442;153.014;2024-02-15T13:05:37;8.18;;;2.38;;
64915;SDS011;51427;-27.442;153.014;2024-02-15T13:08:05;6.85;;;2.30;;
64915;SDS011;51427;-27.442;153.014;2024-02-15T13:10:36;6.40;;;2.40;;
64915;SDS011;51427;-27.442;153.014;2024-02-15T13:13:04;7.40;;;1.85;;
64915;SDS011;51427;-27.442;153.014;2024-02-15T13:15:32;8.02;;;2.50;;
64915;SDS011;51427;-27.442;153.014;2024-02-15T13:18:00;7.55;;;2.28;;
64915;SDS011;51427;-27.442;153.014;2024-02-15T13:20:30;4.65;;;2.70;;
64915;SDS011;51427;-27.442;153.014;2024-02-15T13:23:04;5.65;;;2.20;;
64915;SDS011;51427;-27.442;153.014;2024-02-15T13:25:43;5.03;;;2.55;;
64915;SDS011;51427;-27.442;153.014;2024-02-15T13:28:11;5.82;;;2.38;;
64915;SDS011;51427;-27.442;153.014;2024-02-15T13:30:38;8.43;;;2.40;;
64915;SDS011;51427;-27.442;153.014;2024-02-15T13:33:07;5.55;;;2.60;;
64915;SDS011;51427;-27.442;153.014;2024-02-15T13:35:34;6.65;;;3.00;;
64915;SDS011;51427;-27.442;153.014;2024-02-15T13:38:02;4.47;;;2.53;;
64915;SDS011;51427;-27.442;153.014;2024-02-15T13:40:38;6.00;;;2.63;;
64915;SDS011;51427;-27.442;153.014;2024-02-15T13:43:09;6.88;;;2.42;;
64915;SDS011;51427;-27.442;153.014;2024-02-15T13:45:40;6.30;;;2.25;;
64915;SDS011;51427;-27.442;153.014;2024-02-15T13:48:08;3.13;;;1.95;;
64915;SDS011;51427;-27.442;153.014;2024-02-15T13:50:47;5.43;;;2.10;;
64915;SDS011;51427;-27.442;153.014;2024-02-15T13:53:18;4.72;;;1.67;;
64915;SDS011;51427;-27.442;153.014;2024-02-15T13:55:45;3.88;;;2.20;;
64915;SDS011;51427;-27.442;153.014;2024-02-15T13:58:13;4.95;;;1.90;;
64915;SDS011;51427;-27.442;153.014;2024-02-15T14:00:40;5.10;;;1.60;;
64915;SDS011;51427;-27.442;153.014;2024-02-15T14:03:11;5.00;;;1.60;;
64915;SDS011;51427;-27.442;153.014;2024-02-15T14:05:41;4.25;;;1.30;;
64915;SDS011;51427;-27.442;153.014;2024-02-15T14:08:10;2.45;;;1.30;;
64915;SDS011;51427;-27.442;153.014;2024-02-15T14:10:37;3.45;;;1.42;;
64915;SDS011;51427;-27.442;153.014;2024-02-15T14:13:05;3.47;;;1.00;;
64915;SDS011;51427;-27.442;153.014;2024-02-15T14:15:37;2.95;;;0.98;;
64915;SDS011;51427;-27.442;153.014;2024-02-15T14:18:04;3.95;;;1.10;;
64915;SDS011;51427;-27.442;153.014;2024-02-15T14:20:32;3.72;;;0.90;;
64915;SDS011;51427;-27.442;153.014;2024-02-15T14:22:59;4.30;;;1.02;;
64915;SDS011;51427;-27.442;153.014;2024-02-15T14:25:31;5.47;;;1.05;;
64915;SDS011;51427;-27.442;153.014;2024-02-15T14:27:59;5.97;;;1.33;;
64915;SDS011;51427;-27.442;153.014;2024-02-15T14:30:26;5.90;;;1.55;;
64915;SDS011;51427;-27.442;153.014;2024-02-15T14:33:12;5.57;;;1.38;;
64915;SDS011;51427;-27.442;153.014;2024-02-15T14:35:45;2.92;;;1.05;;
64915;SDS011;51427;-27.442;153.014;2024-02-15T14:38:13;6.72;;;1.10;;
64915;SDS011;51427;-27.442;153.014;2024-02-15T14:40:42;3.45;;;1.02;;
64915;SDS011;51427;-27.442;153.014;2024-02-15T14:43:21;7.72;;;1.75;;
64915;SDS011;51427;-27.442;153.014;2024-02-15T14:45:52;6.88;;;2.42;;
64915;SDS011;51427;-27.442;153.014;2024-02-15T14:48:21;7.05;;;1.90;;
64915;SDS011;51427;-27.442;153.014;2024-02-15T14:50:49;3.97;;;0.80;;
64915;SDS011;51427;-27.442;153.014;2024-02-15T14:53:18;1.92;;;0.73;;